パリ/シャルル・ド・ゴール の空港の天気 - METARとTAF

シャルル・ド・ゴール国際空港(パリ) ( LFPG / CDG ) - フランス Paris
飛行場実況気象(Metar)
観測時間07/18 14:00 CEST (07/18 12:00 UTC)
風向・風速北東 4m/s
視程10km以上
天気現象
なし
気温25℃
湿度39%
気圧1018hPa
METARLFPG 181200Z 05007KT 340V080 CAVOK 25/10 Q1018 NOSIG
過去の天気等 Google飛行場航空写真 Wunderground天気予報

過去48時間のMETAR

飛行場予報(TAF)
発表時間: 7/18 13:00 CEST (7/18 11:00 UTC)
予報対象時間: 18日14時 CEST ~ 19日20時 CEST
風向・風速北東 4m/s
視程10km以上
なし
TAF LFPG 181100Z 1812/1918 04008KT CAVOK TX31/1914Z TN18/1905Z